createdAt,value
2022-07-31T00:00:28.794Z,19.24
2022-07-31T00:03:05.023Z,19.25
2022-07-31T00:05:33.020Z,19.26
2022-07-31T00:08:09.517Z,19.27
2022-07-31T00:10:37.331Z,19.26
2022-07-31T00:13:05.235Z,19.26
2022-07-31T00:15:33.128Z,19.27
2022-07-31T00:18:00.972Z,19.28
2022-07-31T00:20:28.777Z,19.29
2022-07-31T00:22:57.493Z,19.30
2022-07-31T00:25:25.544Z,19.30
2022-07-31T00:27:53.637Z,19.30
2022-07-31T00:30:21.365Z,19.30
2022-07-31T00:32:51.789Z,19.29
2022-07-31T00:35:19.867Z,19.29
2022-07-31T00:37:47.735Z,19.30
2022-07-31T00:40:17.599Z,19.29
2022-07-31T00:42:46.060Z,19.28
2022-07-31T00:45:14.718Z,19.29
2022-07-31T00:47:43.511Z,19.29
2022-07-31T00:50:12.619Z,19.29
2022-07-31T00:52:40.715Z,19.29
2022-07-31T00:55:09.337Z,19.29
2022-07-31T00:57:37.393Z,19.29
2022-07-31T01:00:06.825Z,19.28
2022-07-31T01:02:34.764Z,19.27
2022-07-31T01:05:02.633Z,19.27
2022-07-31T01:07:30.503Z,19.27
2022-07-31T01:09:59.486Z,19.26
2022-07-31T01:12:36.250Z,19.25
2022-07-31T01:15:08.137Z,19.24
2022-07-31T01:17:37.118Z,19.23
2022-07-31T01:20:06.058Z,19.24
2022-07-31T01:22:45.950Z,19.23
2022-07-31T01:25:47.676Z,19.21
2022-07-31T01:28:45.180Z,19.20
2022-07-31T01:31:31.682Z,19.19
2022-07-31T01:34:40.665Z,19.17
2022-07-31T01:37:20.857Z,19.15
2022-07-31T01:40:03.078Z,19.13
2022-07-31T01:42:32.214Z,19.12
2022-07-31T01:45:03.366Z,19.10
2022-07-31T01:47:32.198Z,19.09
2022-07-31T01:50:00.706Z,19.08
2022-07-31T01:52:30.418Z,19.07
2022-07-31T01:54:59.146Z,19.06
2022-07-31T01:57:27.867Z,19.05
2022-07-31T02:00:01.431Z,19.04
2022-07-31T02:02:30.389Z,19.04
2022-07-31T02:04:58.468Z,19.03
2022-07-31T02:07:26.816Z,19.02
2022-07-31T02:09:58.433Z,19.02
2022-07-31T02:12:31.920Z,19.01
2022-07-31T02:15:07.201Z,19.00
2022-07-31T02:17:37.053Z,18.99
2022-07-31T02:20:07.790Z,18.97
2022-07-31T02:22:35.966Z,18.96
2022-07-31T02:25:05.442Z,18.96
2022-07-31T02:27:57.784Z,18.94
2022-07-31T02:30:21.752Z,18.93
2022-07-31T02:32:50.232Z,18.92
2022-07-31T02:35:18.673Z,18.92
2022-07-31T02:37:50.720Z,18.91
2022-07-31T02:40:19.311Z,18.91
2022-07-31T02:42:47.739Z,18.90
2022-07-31T02:45:16.163Z,18.88
2022-07-31T02:47:44.204Z,18.86
2022-07-31T02:50:12.953Z,18.85
2022-07-31T02:52:40.874Z,18.84
2022-07-31T02:55:09.574Z,18.82
2022-07-31T02:57:37.407Z,18.82
2022-07-31T03:00:27.015Z,18.81
2022-07-31T03:02:55.799Z,18.79
2022-07-31T03:05:24.044Z,18.78
2022-07-31T03:07:52.176Z,18.77
2022-07-31T03:10:20.108Z,18.75
2022-07-31T03:12:51.116Z,18.75
2022-07-31T03:15:21.907Z,18.74
2022-07-31T03:17:50.377Z,18.73
2022-07-31T03:20:18.728Z,18.72
2022-07-31T03:22:46.765Z,18.71
2022-07-31T03:25:20.213Z,18.70
2022-07-31T03:27:55.962Z,18.69
2022-07-31T03:30:25.477Z,18.68
2022-07-31T03:32:55.323Z,18.68
2022-07-31T03:35:24.891Z,18.67
2022-07-31T03:37:52.813Z,18.66
2022-07-31T03:40:20.957Z,18.65
2022-07-31T03:42:49.892Z,18.65
2022-07-31T03:45:18.827Z,18.63
2022-07-31T03:47:46.791Z,18.63
2022-07-31T03:50:15.481Z,18.61
2022-07-31T03:52:46.056Z,18.61
2022-07-31T03:55:14.581Z,18.60
2022-07-31T03:57:43.006Z,18.57
2022-07-31T04:00:17.038Z,18.54
2022-07-31T04:02:45.775Z,18.52
2022-07-31T04:05:13.871Z,18.51
2022-07-31T04:07:41.735Z,18.50
2022-07-31T04:10:10.275Z,18.50
2022-07-31T04:12:38.282Z,18.50
2022-07-31T04:15:06.802Z,18.50
2022-07-31T04:17:34.718Z,18.52
2022-07-31T04:20:02.683Z,18.54
2022-07-31T04:22:33.766Z,18.56
2022-07-31T04:25:02.007Z,18.58
2022-07-31T04:27:29.780Z,18.60
2022-07-31T04:29:58.085Z,18.62
2022-07-31T04:32:25.976Z,18.62
2022-07-31T04:34:54.128Z,18.64
2022-07-31T04:37:22.014Z,18.64
2022-07-31T04:39:49.966Z,18.64
2022-07-31T04:42:17.781Z,18.65
2022-07-31T04:44:45.785Z,18.65
2022-07-31T04:47:14.224Z,18.66
2022-07-31T04:49:42.159Z,18.68
2022-07-31T04:52:10.030Z,18.70
2022-07-31T04:54:39.066Z,18.73
2022-07-31T04:57:06.952Z,18.76
2022-07-31T04:59:57.694Z,18.80
2022-07-31T05:02:22.567Z,18.83
2022-07-31T05:04:52.622Z,18.86
2022-07-31T05:07:28.332Z,18.89
2022-07-31T05:09:58.717Z,18.92
2022-07-31T05:12:26.973Z,18.94
2022-07-31T05:14:54.929Z,18.98
2022-07-31T05:17:22.848Z,19.01
2022-07-31T05:19:50.762Z,19.04
2022-07-31T05:22:18.925Z,19.07
2022-07-31T05:24:46.854Z,19.09
2022-07-31T05:27:14.726Z,19.11
2022-07-31T05:29:42.644Z,19.12
2022-07-31T05:32:10.689Z,19.14
2022-07-31T05:34:38.587Z,19.16
2022-07-31T05:37:06.461Z,19.17
2022-07-31T05:39:34.318Z,19.20
2022-07-31T05:42:02.412Z,19.21
2022-07-31T05:44:30.437Z,19.25
2022-07-31T05:49:29.030Z,19.30
2022-07-31T05:51:57.925Z,19.32
2022-07-31T05:54:25.985Z,19.35
2022-07-31T05:56:53.877Z,19.36
2022-07-31T05:59:21.700Z,19.38
2022-07-31T06:01:50.118Z,19.41
2022-07-31T06:04:18.113Z,19.44
2022-07-31T06:06:45.880Z,19.46
2022-07-31T06:09:13.780Z,19.49
2022-07-31T06:11:41.685Z,19.52
2022-07-31T06:14:09.686Z,19.55
2022-07-31T06:16:37.507Z,19.57
2022-07-31T06:19:05.367Z,19.59
2022-07-31T06:21:36.391Z,19.62
2022-07-31T06:24:05.191Z,19.63
2022-07-31T06:26:33.577Z,19.65
2022-07-31T06:29:01.512Z,19.68
2022-07-31T06:31:29.450Z,19.71
2022-07-31T06:33:57.407Z,19.74
2022-07-31T06:36:25.276Z,19.75
2022-07-31T06:38:53.261Z,19.78
2022-07-31T06:41:40.028Z,19.79
2022-07-31T06:44:08.838Z,19.81
2022-07-31T06:46:38.495Z,19.85
2022-07-31T06:49:17.439Z,19.94
2022-07-31T06:51:45.773Z,20.04
2022-07-31T06:54:14.719Z,20.18
2022-07-31T06:56:43.016Z,20.35
2022-07-31T06:59:11.401Z,20.54
2022-07-31T07:01:39.790Z,20.74
2022-07-31T07:04:07.788Z,20.91
2022-07-31T07:06:36.205Z,21.12
2022-07-31T07:09:05.921Z,21.35
2022-07-31T07:11:38.124Z,21.58
2022-07-31T07:14:10.736Z,21.82
2022-07-31T07:16:38.755Z,22.05
2022-07-31T07:19:08.445Z,22.30
2022-07-31T07:21:36.462Z,22.54
2022-07-31T07:24:05.450Z,22.78
2022-07-31T07:26:33.580Z,23.04
2022-07-31T07:29:02.598Z,23.30
2022-07-31T07:31:30.566Z,23.54
2022-07-31T07:33:58.506Z,23.78
2022-07-31T07:36:26.378Z,24.01
2022-07-31T07:38:55.732Z,24.25
2022-07-31T07:41:25.307Z,24.46
2022-07-31T07:43:54.107Z,24.63
2022-07-31T07:46:23.466Z,24.80
2022-07-31T07:48:51.819Z,25.04
2022-07-31T07:51:20.599Z,25.28
2022-07-31T07:53:48.664Z,25.37
2022-07-31T07:56:17.252Z,25.26
2022-07-31T07:58:45.147Z,25.18
2022-07-31T08:01:13.341Z,25.17
2022-07-31T08:03:51.471Z,25.18
2022-07-31T08:06:22.691Z,25.19
2022-07-31T08:08:50.662Z,25.18
2022-07-31T08:11:18.666Z,25.16
2022-07-31T08:13:50.498Z,25.15
2022-07-31T08:16:20.778Z,25.10
2022-07-31T08:18:50.223Z,25.06
2022-07-31T08:21:17.978Z,25.02
2022-07-31T08:23:45.925Z,24.99
2022-07-31T08:26:18.604Z,24.98
2022-07-31T08:28:49.902Z,24.97
2022-07-31T08:31:21.107Z,25.00
2022-07-31T08:36:50.364Z,25.06
2022-07-31T08:39:21.299Z,25.12
2022-07-31T08:41:49.201Z,25.21
2022-07-31T08:44:17.026Z,25.28
2022-07-31T08:46:45.958Z,25.38
2022-07-31T08:49:17.606Z,25.49
2022-07-31T08:51:51.100Z,25.59
2022-07-31T08:54:21.013Z,25.71
2022-07-31T08:56:52.696Z,25.85
2022-07-31T08:59:22.210Z,26.01
2022-07-31T09:01:50.522Z,26.14
2022-07-31T09:04:18.942Z,26.27
2022-07-31T09:06:46.729Z,26.38
2022-07-31T09:09:17.250Z,26.52
2022-07-31T09:11:54.911Z,26.70
2022-07-31T09:14:37.277Z,26.90
2022-07-31T09:17:08.372Z,27.03
2022-07-31T09:19:52.010Z,27.15
2022-07-31T09:22:27.946Z,27.32
2022-07-31T09:25:19.109Z,27.49
2022-07-31T09:33:54.613Z,27.93
2022-07-31T09:36:24.578Z,28.00
2022-07-31T09:38:52.578Z,28.05
2022-07-31T09:41:56.853Z,28.10
2022-07-31T09:44:11.006Z,28.15
2022-07-31T09:46:48.437Z,28.19
2022-07-31T09:49:16.520Z,28.22
2022-07-31T09:51:48.355Z,28.31
2022-07-31T09:54:25.226Z,28.41
2022-07-31T09:56:53.512Z,28.52
2022-07-31T09:59:21.384Z,28.64
2022-07-31T10:01:50.141Z,28.74
2022-07-31T10:04:20.069Z,28.83
2022-07-31T10:06:50.649Z,28.86
2022-07-31T10:09:21.138Z,28.84
2022-07-31T10:11:50.986Z,28.82
2022-07-31T10:14:28.620Z,28.80
2022-07-31T10:16:59.606Z,28.77
2022-07-31T10:19:32.765Z,28.75
2022-07-31T10:22:04.764Z,28.74
2022-07-31T10:24:33.619Z,28.75
2022-07-31T10:27:08.087Z,28.82
2022-07-31T10:29:41.147Z,28.82
2022-07-31T10:32:09.632Z,28.69
2022-07-31T10:34:38.229Z,28.50
2022-07-31T10:37:21.264Z,28.35
2022-07-31T10:40:04.171Z,28.20
2022-07-31T10:42:52.003Z,28.12
2022-07-31T10:45:19.903Z,28.10
2022-07-31T10:47:56.846Z,28.14
2022-07-31T10:50:30.491Z,28.27
2022-07-31T10:53:13.657Z,28.40
2022-07-31T10:55:42.230Z,28.50
2022-07-31T10:58:21.970Z,28.51
2022-07-31T11:01:05.954Z,28.47
2022-07-31T11:03:49.841Z,28.40
2022-07-31T11:06:26.947Z,28.34
2022-07-31T11:08:57.898Z,28.30
2022-07-31T11:11:39.250Z,28.31
2022-07-31T11:14:54.342Z,28.36
2022-07-31T11:18:20.656Z,28.42
2022-07-31T11:20:40.568Z,28.43
2022-07-31T11:23:10.805Z,28.45
2022-07-31T11:25:39.261Z,28.46
2022-07-31T11:28:21.532Z,28.47
2022-07-31T11:31:01.030Z,28.47
2022-07-31T11:33:41.839Z,28.45
2022-07-31T11:36:15.572Z,28.42
2022-07-31T11:38:46.932Z,28.38
2022-07-31T11:41:22.253Z,28.36
2022-07-31T11:43:52.746Z,28.37
2022-07-31T11:46:33.364Z,28.43
2022-07-31T11:49:03.199Z,28.46
2022-07-31T11:51:31.558Z,28.48
2022-07-31T11:54:00.407Z,28.48
2022-07-31T11:56:28.401Z,28.49
2022-07-31T11:58:58.533Z,28.52
2022-07-31T12:01:29.222Z,28.58
2022-07-31T12:04:01.665Z,28.69
2022-07-31T12:06:38.678Z,28.79
2022-07-31T12:09:06.713Z,28.90
2022-07-31T12:11:34.622Z,29.03
2022-07-31T12:14:02.847Z,29.16
2022-07-31T12:16:41.449Z,29.29
2022-07-31T12:19:09.427Z,29.35
2022-07-31T12:21:40.210Z,29.34
2022-07-31T12:24:13.109Z,29.34
2022-07-31T12:26:50.323Z,29.34
2022-07-31T12:29:19.280Z,29.35
2022-07-31T12:31:53.822Z,29.35
2022-07-31T12:34:42.435Z,29.32
2022-07-31T12:37:16.778Z,29.29
2022-07-31T12:40:00.334Z,29.25
2022-07-31T12:42:41.201Z,29.16
2022-07-31T12:45:19.819Z,29.07
2022-07-31T12:47:53.833Z,29.03
2022-07-31T12:50:23.217Z,29.00
2022-07-31T12:52:52.020Z,29.00
2022-07-31T12:55:20.646Z,29.01
2022-07-31T12:57:51.131Z,29.02
2022-07-31T13:00:23.295Z,29.04
2022-07-31T13:02:53.008Z,29.03
2022-07-31T13:05:22.347Z,28.96
2022-07-31T13:07:50.629Z,28.84
2022-07-31T13:10:21.279Z,28.73
2022-07-31T13:12:52.370Z,28.63
2022-07-31T13:15:29.645Z,28.55
2022-07-31T13:18:02.217Z,28.46
2022-07-31T13:20:31.205Z,28.37
2022-07-31T13:23:02.974Z,28.27
2022-07-31T13:25:31.257Z,28.16
2022-07-31T13:27:59.790Z,28.06
2022-07-31T13:30:28.871Z,27.96
2022-07-31T13:32:56.888Z,27.89
2022-07-31T13:35:28.493Z,27.84
2022-07-31T13:37:57.269Z,27.80
2022-07-31T13:40:45.299Z,27.78
2022-07-31T13:43:13.896Z,27.74
2022-07-31T13:45:41.708Z,27.72
2022-07-31T13:48:10.327Z,27.70
2022-07-31T13:50:42.196Z,27.67
2022-07-31T13:53:10.517Z,27.64
2022-07-31T13:55:38.999Z,27.62
2022-07-31T13:58:07.625Z,27.59
2022-07-31T14:00:35.736Z,27.56
2022-07-31T14:03:03.791Z,27.50
2022-07-31T14:05:37.940Z,27.44
2022-07-31T14:08:32.550Z,27.37
2022-07-31T14:10:57.385Z,27.30
2022-07-31T14:13:25.657Z,27.26
2022-07-31T14:15:53.564Z,27.21
2022-07-31T14:18:23.419Z,27.18
2022-07-31T14:20:51.928Z,27.16
2022-07-31T14:23:19.821Z,27.11
2022-07-31T14:25:47.727Z,27.06
2022-07-31T14:28:15.633Z,27.01
2022-07-31T14:30:46.622Z,26.97
2022-07-31T14:33:17.817Z,26.95
2022-07-31T14:35:45.659Z,26.93
2022-07-31T14:38:26.953Z,26.90
2022-07-31T14:40:56.237Z,26.87
2022-07-31T14:43:24.148Z,26.86
2022-07-31T14:45:52.343Z,26.85
2022-07-31T14:48:20.947Z,26.85
2022-07-31T14:50:48.951Z,26.85
2022-07-31T14:53:16.788Z,26.84
2022-07-31T14:55:45.273Z,26.84
2022-07-31T14:58:13.257Z,26.83
2022-07-31T15:00:41.477Z,26.84
2022-07-31T15:03:09.231Z,26.84
2022-07-31T15:06:41.794Z,26.84
2022-07-31T15:08:24.979Z,26.85
2022-07-31T15:10:52.833Z,26.86
2022-07-31T15:13:20.616Z,26.87
2022-07-31T15:15:49.211Z,26.89
2022-07-31T15:18:17.131Z,26.90
2022-07-31T15:20:44.870Z,26.91
2022-07-31T15:23:12.811Z,26.93
2022-07-31T15:25:40.862Z,26.94
2022-07-31T15:28:08.736Z,26.93
2022-07-31T15:30:36.741Z,26.93
2022-07-31T15:33:04.765Z,26.94
2022-07-31T15:35:32.874Z,26.94
2022-07-31T15:38:02.365Z,26.94
2022-07-31T15:40:30.262Z,26.94
2022-07-31T15:42:58.523Z,26.93
2022-07-31T15:45:26.406Z,26.92
2022-07-31T15:47:54.218Z,26.93
2022-07-31T15:50:22.159Z,26.93
2022-07-31T15:52:50.181Z,26.93
2022-07-31T15:55:18.347Z,26.93
2022-07-31T15:57:46.890Z,26.94
2022-07-31T16:00:15.324Z,26.95
2022-07-31T16:02:45.437Z,26.95
2022-07-31T16:05:22.072Z,26.95
2022-07-31T16:08:30.040Z,26.94
2022-07-31T16:10:55.106Z,26.94
2022-07-31T16:13:25.113Z,26.92
2022-07-31T16:15:54.116Z,26.93
2022-07-31T16:18:22.258Z,26.92
2022-07-31T16:20:50.363Z,26.91
2022-07-31T16:23:18.303Z,26.90
2022-07-31T16:25:46.658Z,26.88
2022-07-31T16:28:15.253Z,26.88
2022-07-31T16:30:45.855Z,26.87
2022-07-31T16:33:14.110Z,26.85
2022-07-31T16:35:42.211Z,26.85
2022-07-31T16:38:10.024Z,26.83
2022-07-31T16:40:37.835Z,26.82
2022-07-31T16:43:48.711Z,26.80
2022-07-31T16:45:56.137Z,26.78
2022-07-31T16:48:24.593Z,26.76
2022-07-31T16:50:53.705Z,26.75
2022-07-31T16:54:11.673Z,26.72
2022-07-31T16:56:16.122Z,26.70
2022-07-31T16:58:44.301Z,26.69
2022-07-31T17:01:57.260Z,26.67
2022-07-31T17:04:04.281Z,26.65
2022-07-31T17:06:36.507Z,26.62
2022-07-31T17:09:15.156Z,26.59
2022-07-31T17:11:49.972Z,26.56
2022-07-31T17:14:20.430Z,26.53
2022-07-31T17:16:50.120Z,26.51
2022-07-31T17:19:41.649Z,26.48
2022-07-31T17:22:11.349Z,26.46
2022-07-31T17:24:39.818Z,26.43
2022-07-31T17:27:09.266Z,26.40
2022-07-31T17:29:39.426Z,26.36
2022-07-31T17:32:08.173Z,26.29
2022-07-31T17:34:40.387Z,26.23
2022-07-31T17:37:08.932Z,26.17
2022-07-31T17:39:37.293Z,26.10
2022-07-31T17:42:05.178Z,26.02
2022-07-31T17:44:33.185Z,25.94
2022-07-31T17:47:07.529Z,25.85
2022-07-31T17:49:35.942Z,25.77
2022-07-31T17:52:04.424Z,25.69
2022-07-31T17:54:34.051Z,25.62
2022-07-31T17:57:04.448Z,25.54
2022-07-31T17:59:33.037Z,25.46
2022-07-31T18:02:01.108Z,25.38
2022-07-31T18:04:35.110Z,25.31
2022-07-31T18:07:05.346Z,25.24
2022-07-31T18:09:35.413Z,25.16
2022-07-31T18:12:03.793Z,25.09
2022-07-31T18:14:33.843Z,25.04
2022-07-31T18:17:02.462Z,24.97
2022-07-31T18:19:30.577Z,24.89
2022-07-31T18:21:58.445Z,24.81
2022-07-31T18:24:26.382Z,24.74
2022-07-31T18:26:57.390Z,24.66
2022-07-31T18:29:25.602Z,24.58
2022-07-31T18:31:59.131Z,24.51
2022-07-31T18:34:27.422Z,24.42
2022-07-31T18:36:56.646Z,24.34
2022-07-31T18:39:26.116Z,24.26
2022-07-31T18:41:56.447Z,24.18
2022-07-31T18:44:26.413Z,24.10
2022-07-31T18:46:58.667Z,24.02
2022-07-31T18:51:00.026Z,23.94
2022-07-31T18:52:15.122Z,23.85
2022-07-31T18:54:43.352Z,23.77
2022-07-31T18:57:15.788Z,23.70
2022-07-31T18:59:44.145Z,23.62
2022-07-31T19:02:12.504Z,23.53
2022-07-31T19:04:40.495Z,23.45
2022-07-31T19:07:09.046Z,23.36
2022-07-31T19:09:37.208Z,23.28
2022-07-31T19:12:08.247Z,23.18
2022-07-31T19:14:37.363Z,23.06
2022-07-31T19:17:08.354Z,22.94
2022-07-31T19:19:54.419Z,22.81
2022-07-31T19:22:23.602Z,22.66
2022-07-31T19:24:53.115Z,22.53
2022-07-31T19:27:21.517Z,22.40
2022-07-31T19:30:02.312Z,22.27
2022-07-31T19:32:31.065Z,22.15
2022-07-31T19:34:59.754Z,22.04
2022-07-31T19:37:27.806Z,21.93
2022-07-31T19:39:55.645Z,21.82
2022-07-31T19:42:23.775Z,21.72
2022-07-31T19:44:51.789Z,21.63
2022-07-31T19:47:19.589Z,21.54
2022-07-31T19:49:48.028Z,21.45
2022-07-31T19:52:16.078Z,21.36
2022-07-31T19:54:43.862Z,21.27
2022-07-31T19:57:11.798Z,21.18
2022-07-31T19:59:40.607Z,21.10
2022-07-31T20:02:08.860Z,21.02
2022-07-31T20:04:37.423Z,20.93
2022-07-31T20:07:05.337Z,20.86
2022-07-31T20:10:13.357Z,20.80
2022-07-31T20:12:40.566Z,21.04
2022-07-31T20:15:08.552Z,21.26
2022-07-31T20:17:38.829Z,21.33
2022-07-31T20:20:15.660Z,21.38
2022-07-31T20:22:54.259Z,21.41
2022-07-31T20:25:22.049Z,21.44
2022-07-31T20:27:53.040Z,21.47
2022-07-31T20:30:22.548Z,21.51
2022-07-31T20:32:55.033Z,21.53
2022-07-31T20:35:47.205Z,21.55
2022-07-31T20:38:16.088Z,21.56
2022-07-31T20:40:51.183Z,21.52
2022-07-31T20:43:22.770Z,21.28
2022-07-31T20:45:49.477Z,21.06
2022-07-31T20:48:20.532Z,20.87
2022-07-31T20:50:48.588Z,20.71
2022-07-31T20:53:22.721Z,20.57
2022-07-31T20:55:50.132Z,20.44
2022-07-31T20:58:23.207Z,20.32
2022-07-31T21:00:52.005Z,20.21
2022-07-31T21:03:19.589Z,20.17
2022-07-31T21:05:46.618Z,20.29
2022-07-31T21:08:13.137Z,20.42
2022-07-31T21:10:40.329Z,20.49
2022-07-31T21:13:07.214Z,20.52
2022-07-31T21:15:43.129Z,20.54
2022-07-31T21:18:16.358Z,20.57
2022-07-31T21:20:52.375Z,20.59
2022-07-31T21:23:25.226Z,20.60
2022-07-31T21:25:54.462Z,20.60
2022-07-31T21:28:22.944Z,20.61
2022-07-31T21:30:53.106Z,20.61
2022-07-31T21:33:19.845Z,20.61
2022-07-31T21:35:46.993Z,20.61
2022-07-31T21:38:15.382Z,20.61
2022-07-31T21:40:44.643Z,20.61
2022-07-31T21:43:12.479Z,20.61
2022-07-31T21:45:50.981Z,20.61
2022-07-31T21:48:25.539Z,20.60
2022-07-31T21:50:54.189Z,20.59
2022-07-31T21:53:21.476Z,20.59
2022-07-31T21:55:48.515Z,20.58
2022-07-31T21:58:15.552Z,20.58
2022-07-31T22:00:43.344Z,20.58
2022-07-31T22:03:35.505Z,20.56
2022-07-31T22:06:25.835Z,20.55
2022-07-31T22:08:52.726Z,20.54
2022-07-31T22:11:19.598Z,20.54
2022-07-31T22:13:46.071Z,20.54
2022-07-31T22:16:12.633Z,20.53
2022-07-31T22:18:39.538Z,20.54
2022-07-31T22:21:07.840Z,20.53
2022-07-31T22:23:35.559Z,20.54
2022-07-31T22:26:02.895Z,20.55
2022-07-31T22:28:29.635Z,20.57
2022-07-31T22:30:56.982Z,20.57
2022-07-31T22:33:23.853Z,20.57
2022-07-31T22:42:18.060Z,20.53
2022-07-31T22:44:46.689Z,20.54
2022-07-31T22:47:16.623Z,20.57
2022-07-31T22:49:44.685Z,20.60
2022-07-31T22:52:12.668Z,20.61
2022-07-31T22:54:41.585Z,20.59
2022-07-31T22:57:09.486Z,20.86
2022-07-31T22:59:37.852Z,21.39
2022-07-31T23:02:09.159Z,22.08
2022-07-31T23:04:37.953Z,22.88
2022-07-31T23:07:06.334Z,23.26
2022-07-31T23:09:34.149Z,22.61
2022-07-31T23:12:03.951Z,21.94
2022-07-31T23:14:32.292Z,21.47
2022-07-31T23:17:00.517Z,21.10
2022-07-31T23:19:28.937Z,20.82
2022-07-31T23:21:56.895Z,20.90
2022-07-31T23:24:24.763Z,22.26
2022-07-31T23:26:52.524Z,23.56
2022-07-31T23:29:20.325Z,24.04
2022-07-31T23:31:48.139Z,23.27
2022-07-31T23:34:17.159Z,22.52
2022-07-31T23:36:45.126Z,21.98
2022-07-31T23:39:13.115Z,21.55
2022-07-31T23:41:59.641Z,21.23
2022-07-31T23:44:27.470Z,20.93
2022-07-31T23:46:55.291Z,20.69
2022-07-31T23:49:24.645Z,20.49
2022-07-31T23:51:52.627Z,20.68
2022-07-31T23:54:20.629Z,22.05
2022-07-31T23:56:48.372Z,23.40
2022-07-31T23:59:16.163Z,23.83
